Sonoma County-Central Daily Obs

29 Stations

Daily Data | America/Los_Angeles
as of 10/23/21 12:18 AM PDT
Station Date Daily Max Temp (°F) Time of Max Temp Daily Min Temp (°F) Time of Min Temp Dew Pt (°F) Max RH (%) Min RH (%) Wind Spd (mph) Daily Max Wind (mph) Time of Max Wind Max Wind Dir (°) Daily Rain (In) Seasonal Rainfall (In) Daily ETo (in) Daily Solar Rad (Cal/cm2) Powdery Mildew Stress (pts)
Healdsburg-South (Sodini) 10/21/21 63.3   4.4 1330 58.3   6.9 0108 60.4   5.4 99   0 97   3 3.2 12.5   1.0 1348 SE | 131 0.79 2.03 - - 0   0
Windsor-NW (Ranch 8) 10/21/21 64.0   4.7 1336 59.0   7.6 0101 56.6   5.0 85   1 82   1 2.6 15.7   8.5 0012 SE | 140 0.94 2.53 0.030   0.011 68   7 0   0
Windsor-East (Ranch 16) 10/21/21 63.9   4.3 1328 58.8   6.9 0101 60.4   5.5 98   0 94   4 3.6 11.9   0.7 1351 S | 184 0.72 1.91 0.022   0.006 70   16 0   0
Mark West-North (Ranch 14) 10/21/21 63.6   4.9 1332 58.5   6.7 0124 60.5   5.3 99   0 95   0 2.0 10.5   1.9 1243 SSE | 164 0.87 2.37 0.020   0.007 67   22 60   0
Windsor-SE (Silk Rd) 10/21/21 63.8   5.0 1323 58.5   6.4 0101 61.1   5.3 100   0 94   3 2.2 11.9   4.5 1354 SSE | 166 0.77 2.27 0.021   0.007 76   26 0   0
Fulton-NW (Ranch 5) 10/21/21 63.8   4.7 1336 58.5   6.7 0119 61.0   5.3 100   0 94   3 3.9 15.6   4.8 0027 ENE | 75 0.32 1.83 0.020   0.006 73   24 0   0
Windsor-South (Laughlin Rd) 10/21/21 63.7   4.9 1320 58.1   6.6 0106 - - - - - - - 1.38 1.63 - - 0   0
Fulton-SE (Barnes Rd) 10/21/21 63.9   4.8 1338 58.5   6.7 0112 60.2   5.4 98   1 91   0 4.1 15.5   4.1 1346 SE | 141 0.57 1.88 - - 0   0
Fulton-SW (Ranch 21) 10/21/21 63.5   5.0 1351 58.3   6.7 0104 60.8   5.4 100   0 92   3 5.5 15.9   3.9 2345 SSE | 160 0.61 2.05 0.018   0.003 71   15 0   0
Santa Rosa-NW (Goldfields) 10/21/21 63.4   4.5 1353 58.4   6.6 0101 61.1   5.2 100   0 95   5 4.6 15.1   3.3 0005 SE | 130 0.60 1.94 0.015   0.002 60   10 0   0
NW Santa Rosa (Piner Road) 10/21/21 63.4   4.4 1348 58.4   6.4 0104 60.7   5.6 99   0 91   1 2.1 11.9   3.4 2357 SE | 140 0.58 1.95 - - 0   0
River Rd South (Denner Ranch) 10/21/21 63.6   4.8 1312 58.1   6.3 0101 61.1   5.5 100   0 93   0 6.6 18.6   2.8 1350 SE | 146 0.02 0.85 - - 0   0
West Santa Rosa (Hawk's Roost) 10/21/21 63.9   4.8 1244 58.6   6.6 0101 61.0   5.5 100   0 96   6 1.3 8.6   0.7 0004 SSE | 149 0.74 2.36 0.021   0.004 71   13 0   0
Guerneville Rd (Prokopakis) 10/21/21 63.7   4.7 1323 58.6   6.2 0105 61.3   5.5 100   0 95   4 - - - - 0.82 2.46 - - 0   0
Guerneville Rd West (Balletto) 10/21/21 63.6   4.3 1227 58.6   6.4 0105 60.9   5.5 99   0 95   2 3.6 13.9   4.5 1357 SSW | 198 0.71 2.27 - - 0   0
Guerneville Rd East (Rich Ranch) 10/21/21 63.7   4.2 1254 58.7   6.7 0103 61.1   5.6 100   0 93   2 - - - - - - - - 0   0
Occidental Rd (Sebastopol) 10/21/21 64.3   5.1 1142 57.7   5.6 0221 57.8   1.8 100   0 63   37 3.2 16.0   3.7 1338 S | 180 0.64 2.18 - - 0   0
Lower Westside Rd (Ranch 12) 10/21/21 63.7   5.2 1317 58.1   8.7 0101 60.7   5.2 100   0 95   1 1.9 10.6   4.2 1555 ESE | 113 0.75 2.54 0.019   0.005 65   17 0   0
Guerneville (Laughlin Rd) 10/21/21 62.9   4.1 1555 58.0   6.2 0104 60.3   4.8 100   0 93   0 1.1 17.2   11.2 0015 S | 176 1.37 3.26 - - 0   0
Korbel (Winery) 10/21/21 63.5   4.6 1148 58.4   7.1 0101 60.7   5.1 100   0 93   0 1.3 11.3   4.6 2244 SE | 129 0.90 2.78 - - 0   0
Forestville (Shone Farms) 10/21/21 64.9   5.1 1541 57.8   7.3 0101 60.4   5.4 99   0 95   1 2.9 16.6   8.2 1336 SSE | 150 0.13 1.41 0.025   0.009 83   26 0   0
Forestville-NE (Ranch 30) 10/21/21 63.4   5.3 1315 57.6   7.8 0104 60.2   5.5 99   0 96   0 4.6 20.1   8.3 2221 SSW | 192 0.80 2.70 0.024   0.007 88   28 0   0
Green Valley Vineyard 10/21/21 63.0   4.6 1309 57.8   5.5 0130 60.0   4.9 100   0 93   3 3.0 21.3   10.3 0028 SSE | 161 1.29 3.83 0.031   0.012 118   44 0   0
Graton-West (Dutton Ranch) 10/21/21 63.5   4.6 1253 58.6   5.3 0147 61.2   4.8 100   0 100   0 2.6 12.7   4.9 2348 SSW | 200 1.51 4.00 - - 0   0
Graton-South (Mill Station Rd) 10/21/21 63.0   4.4 1727 58.0   5.5 0121 60.3   5.1 100   1 91   6 2.8 15.8   4.4 0027 ESE | 120 0.88 2.42 - - 0   0
Occidental (Horseshoe Bend) 10/21/21 60.8   3.5 1211 57.2   5.2 0102 59.3   4.8 100   0 100   1 - - - - - - - - 0   10
Sexton Valley (Jacqueline's Blk) 10/21/21 63.2   4.5 1240 58.5   5.3 0123 60.3   5.3 98   1 95   0 0.9 9.9   0.3 1327 SSE | 154 1.11 3.06 - - 0   0
Sebastopol Hills (Burnside Rd) 10/21/21 61.7   4.1 1249 57.2   5.4 0135 59.9   5.2 100   0 95   4 3.8 18.1   4.2 0034 S | 175 0.95 2.59 - - 0   0
Seaview/Fort Ross (Hirsch) 10/21/21 58.2   2.9 1649 54.1   5.0 0059 55.6   4.2 97   0 97   0 6.7 19.5   0.5 0014 SSE | 159 2.70 7.37 0.013   0.013 40   85 0   0
Max   64.9 - 59.0 - 61.3 100 100 6.7 21.3 - - 2.70 - 0.031 118 -
Avg   - - - - 60.2 - - 3.2 - - - - - - - -
Min   58.2 - 54.1 - 55.6 85 63 0.9 8.6 - - 0.02 - 0.013 40 -